Pagrindinis puslapis
METAR-TAF:

METAR-TAF

Oro uostai :

Adak Island, Aliaska, Jungtinės Amerikos Valstijos

platuma: 51-52-40N, ilguma: 176-38-45W, Aukštis: 6 m

Dabartinis oras

Ataskaita buvo paskelbta 9 minutes, ne 08:56 UTC
Vėjas 18 kt iš Rytų su gūsio iki 25 kt
Temperatūra 11°C
Drėgmė 94%
Slėgis 1011 hPa
Matomumas: 9.7 km
Su prošvaistėmis ne aukštis 1000 ft
Apsiniaukę ne aukštis 1400 ft
lietus, rūkana

METAR: PADK 160856Z AUTO 10018G25KT 6SM -RA BR BKN010 OVC014 11/10 A2984 RMK AO2 CIG 007V013 SLP104 P0004 60004 T01060100 58035

Laikas: 01:05 (09:05 UTC)


TAF: trūkstamas

Orai ataskaitas ir orų prognozės (METAR, TAF).

turimą stotys yra geltonos ir raudonos taškus žemėlapyje.

Perkelti pele per norėdami pamatyti stoties vardą.

Tada spustelėkite, norėdami matyti oro stebėjimo ir prognozės.

Norėdami pakeisti žemėlapį: spustelėkite ant žalios mygtukų su juodo kryžiaus žemyn,; žalią mygtuką su brūkšneliu, jei norite nutolinti; arba žalių rodyklių gretimoms žemėlapius.


METAR-TAF: